logo tempoitalia

Diretta Meteo Childress, Stati Uniti (USA)lunedì 31 agosto ore 00:53

Mappa
Sereno 29 °C Sereno 24 Ore: T.min 26 T.max 39
Ponente Sud Km/h 14.8 Punto di rugiada: 13 °C Umidità: 37% Visibilità: 10 Km
Il sole sorge alle: 07:13 Il sole tramonta alle: 20:08
31 Agosto 2026 00:53 tempo osservato: Sereno Sereno 29 37 1014 vento: Nord S 14.8
30 Agosto 2026 23:53 tempo osservato: Sereno Sereno 30 35 1014 vento: Nord S/SE 14.8
30 Agosto 2026 22:53 tempo osservato: Sereno Sereno 31 33 1014 vento: Nord S/SE 16.7
30 Agosto 2026 21:53 tempo osservato: Sereno Sereno 32 33 1013 vento: Nord S/SE 13
30 Agosto 2026 20:53 tempo osservato: Sereno Sereno 33 31 1012 vento: Nord S/SE 14.8
30 Agosto 2026 19:53 tempo osservato: Sereno Sereno 36 25 1012 vento: Nord S 16.7
30 Agosto 2026 18:53 tempo osservato: Sereno Sereno 37 22 1011 vento: Nord S 16.7
30 Agosto 2026 17:53 tempo osservato: Sereno Sereno 38 21 1012 vento: Nord S 18.5
30 Agosto 2026 16:53 tempo osservato: Sereno Sereno 39 21 1012 vento: Nord S/SO 14.8
30 Agosto 2026 15:53 tempo osservato: Sereno Sereno 38 24 1013 vento: Nord S 20.3
30 Agosto 2026 14:53 tempo osservato: Sereno Sereno 39 22 1014 vento: Nord S 27.8
30 Agosto 2026 13:53 tempo osservato: Sereno Sereno 38 25 1014 vento: Nord S 13
30 Agosto 2026 12:53 tempo osservato: Sereno Sereno 36 30 1015 vento: Nord O/SO 20.3
30 Agosto 2026 11:53 tempo osservato: Sereno Sereno 36 32 1016 vento: Nord SO 25.9
30 Agosto 2026 10:53 tempo osservato: Sereno Sereno 34 36 1016 vento: Nord SO 25.9
30 Agosto 2026 09:53 tempo osservato: Sereno Sereno 31 43 1016 vento: Nord S/SO 29.6
30 Agosto 2026 08:53 tempo osservato: Sereno Sereno 28 51 1016 vento: Nord S 20.3
30 Agosto 2026 07:53 tempo osservato: Sereno Sereno 26 54 1016 vento: Nord S 18.5
30 Agosto 2026 06:53 tempo osservato: Sereno Sereno 26 54 1015 vento: Nord S 18.5
30 Agosto 2026 05:53 tempo osservato: Sereno Sereno 26 54 1015 vento: Nord S 16.7
30 Agosto 2026 04:53 tempo osservato: Sereno Sereno 27 50 1014 vento: Nord S 16.7
30 Agosto 2026 03:53 tempo osservato: Sereno Sereno 28 48 1014 vento: Nord S 18.5
30 Agosto 2026 02:53 tempo osservato: Sereno Sereno 29 42 1014 vento: Nord S 20.3
30 Agosto 2026 01:53 tempo osservato: Sereno Sereno 29 39 1015 vento: Nord S 18.5